CheckWX is a tool to help pilots better visualize weather data.  It is not intended as a substitute for an official pre-flight weather briefing.

09:30:49 UTC

ZBTJ TAF
Tianjin Binhai International Airport
Tianjin, China
TAF ZBTJ 200258Z 2006/2106 34004MPS 5000 HZ NSC TX09/2007Z TNM03/22Z

Feb-20@
06:00 UTC

Feb-20 @ 06:00 UTC

Feb-21@
06:00 UTC

Feb-21 @ 06:00 UTC

TAF ZBTJ 200258Z 2006/2106 34004MPS 5000 HZ NSC TX09/2007Z TNM03/22Z
Wind
  • 340° at 8 KTS
Visibility
5,005 meters
Conditions
Haze
Cloud Levels
  • No significant clouds